Time;durP1;ratioP1;P1;durP2;ratioP2;P2;SDS_P1;SDS_P2;PMS_P1;PMS_P2;Temp;Humidity;BMP_temperature;BMP_pressure;BME280_temperature;BME280_humidity;BME280_pressure;Samples;Min_cycle;Max_cycle;Signal;HPM_P1;HPM_P2
2023/12/01 00:01:09;;;;;;;14.70;6.75;;;;;;;;;;5042071;28;20045;-91
2023/12/01 00:03:53;;;;;;;17.00;6.30;;;;;;;;;;5042267;28;20134;-92
2023/12/01 00:06:36;;;;;;;15.65;6.95;;;;;;;;;;5043360;28;20042;-93
2023/12/01 00:09:18;;;;;;;12.25;6.53;;;;;;;;;;5043760;28;20052;-92
2023/12/01 00:12:00;;;;;;;12.55;6.03;;;;;;;;;;5041216;28;20052;-92
2023/12/01 00:14:48;;;;;;;15.10;8.10;;;;;;;;;;5043211;28;20122;-91
2023/12/01 00:17:30;;;;;;;13.73;7.88;;;;;;;;;;5045224;28;20138;-91
2023/12/01 00:20:14;;;;;;;18.50;7.75;;;;;;;;;;5041816;28;20067;-92
2023/12/01 00:22:58;;;;;;;17.15;8.65;;;;;;;;;;5046157;28;20336;-91
2023/12/01 00:25:39;;;;;;;14.77;6.57;;;;;;;;;;5042951;28;20145;-92
2023/12/01 00:28:21;;;;;;;19.10;7.00;;;;;;;;;;5032193;28;20054;-92
2023/12/01 00:30:57;;;;;;;13.70;7.80;;;;;;;;;;5029569;28;20109;-91
2023/12/01 00:33:41;;;;;;;15.00;7.13;;;;;;;;;;5041569;28;20045;-92
2023/12/01 00:36:28;;;;;;;18.08;8.35;;;;;;;;;;5032094;28;20048;-91
2023/12/01 00:39:10;;;;;;;13.18;6.35;;;;;;;;;;5030009;28;20118;-91
2023/12/01 00:41:52;;;;;;;16.25;8.07;;;;;;;;;;5028649;28;20042;-92
2023/12/01 00:44:33;;;;;;;14.25;7.63;;;;;;;;;;5028218;28;20038;-91
2023/12/01 00:47:15;;;;;;;13.20;6.78;;;;;;;;;;5035988;28;20052;-92
2023/12/01 00:49:57;;;;;;;15.48;6.78;;;;;;;;;;5034117;28;20046;-92
2023/12/01 00:52:42;;;;;;;16.30;8.15;;;;;;;;;;5034292;28;20053;-92
2023/12/01 00:55:27;;;;;;;16.05;7.40;;;;;;;;;;5034229;28;20044;-91
2023/12/01 00:58:08;;;;;;;16.80;7.05;;;;;;;;;;5028460;28;20049;-91
2023/12/01 01:00:52;;;;;;;16.38;7.60;;;;;;;;;;5028668;28;20045;-91
2023/12/01 01:03:39;;;;;;;16.10;7.78;;;;;;;;;;5029573;28;20095;-92
2023/12/01 01:12:20;;;;;;;16.20;8.07;;;;;;;;;;5231949;22;20442;-91
2023/12/01 01:15:03;;;;;;;15.68;7.03;;;;;;;;;;5095434;28;20394;-92
2023/12/01 01:17:44;;;;;;;20.35;8.25;;;;;;;;;;5096665;28;20061;-92
2023/12/01 01:20:26;;;;;;;17.33;7.35;;;;;;;;;;5098523;28;20032;-91
2023/12/01 01:23:07;;;;;;;16.65;7.72;;;;;;;;;;5094356;28;20087;-93
2023/12/01 01:25:50;;;;;;;17.77;7.57;;;;;;;;;;5095457;28;20040;-91
2023/12/01 01:28:32;;;;;;;14.73;7.30;;;;;;;;;;5098387;28;20061;-92
2023/12/01 01:31:16;;;;;;;13.73;7.13;;;;;;;;;;5096504;28;20043;-92
2023/12/01 01:33:59;;;;;;;18.67;8.37;;;;;;;;;;5095151;28;20034;-92
2023/12/01 01:36:44;;;;;;;17.60;8.20;;;;;;;;;;5096292;28;20458;-92
2023/12/01 01:39:26;;;;;;;16.95;7.57;;;;;;;;;;5093260;28;20090;-92
2023/12/01 01:42:08;;;;;;;11.65;6.43;;;;;;;;;;5095196;28;20134;-91
2023/12/01 01:44:50;;;;;;;21.17;8.65;;;;;;;;;;5111224;28;20093;-92
2023/12/01 01:47:34;;;;;;;22.45;9.00;;;;;;;;;;5096048;28;20032;-91
2023/12/01 01:50:15;;;;;;;16.10;8.77;;;;;;;;;;5099177;28;20044;-91
2023/12/01 01:52:56;;;;;;;18.55;7.78;;;;;;;;;;5186172;22;20097;-92
2023/12/01 01:58:19;;;;;;;21.80;8.45;;;;;;;;;;5195725;22;20131;-91
2023/12/01 02:00:53;;;;;;;20.67;8.38;;;;;;;;;;5054485;28;20053;-90
2023/12/01 02:03:34;;;;;;;21.45;9.90;;;;;;;;;;5055255;28;20045;-92
2023/12/01 02:06:15;;;;;;;19.73;9.02;;;;;;;;;;5055241;28;20044;-91
2023/12/01 02:08:58;;;;;;;17.52;9.23;;;;;;;;;;5073012;28;20052;-91
2023/12/01 02:11:40;;;;;;;20.40;7.20;;;;;;;;;;5054613;28;20045;-91
2023/12/01 02:14:13;;;;;;;23.80;9.32;;;;;;;;;;5070426;28;20053;-91
2023/12/01 02:16:54;;;;;;;26.05;9.82;;;;;;;;;;5054876;28;20340;-91
2023/12/01 02:19:35;;;;;;;20.55;8.82;;;;;;;;;;5054666;28;20079;-92
2023/12/01 02:22:20;;;;;;;24.60;10.20;;;;;;;;;;5069634;28;20370;-93
2023/12/01 02:25:03;;;;;;;19.00;9.98;;;;;;;;;;5070105;28;20036;-92
2023/12/01 02:27:44;;;;;;;24.40;9.68;;;;;;;;;;5070261;28;20124;-91
2023/12/01 02:30:25;;;;;;;19.90;8.77;;;;;;;;;;5055704;28;20099;-92
2023/12/01 02:33:09;;;;;;;23.30;9.63;;;;;;;;;;5069976;28;20130;-91
2023/12/01 02:35:53;;;;;;;21.63;8.95;;;;;;;;;;5053786;28;20062;-91
2023/12/01 02:38:34;;;;;;;21.75;9.27;;;;;;;;;;5054781;28;20072;-90
2023/12/01 02:41:19;;;;;;;21.35;10.30;;;;;;;;;;5069059;28;20048;-91
2023/12/01 02:44:00;;;;;;;23.55;8.88;;;;;;;;;;5059536;28;20040;-91
2023/12/01 02:46:41;;;;;;;24.15;11.40;;;;;;;;;;5061138;28;20101;-90
2023/12/01 02:49:24;;;;;;;30.45;11.32;;;;;;;;;;5060495;28;20039;-92
2023/12/01 02:52:08;;;;;;;23.13;10.45;;;;;;;;;;5060609;28;20079;-91
2023/12/01 02:54:52;;;;;;;28.83;11.02;;;;;;;;;;5060582;28;20051;-93
2023/12/01 02:57:34;;;;;;;31.05;11.32;;;;;;;;;;5054574;28;20085;-92
2023/12/01 03:00:15;;;;;;;26.67;10.10;;;;;;;;;;5053448;28;20047;-92
2023/12/01 03:02:44;;;;;;;24.90;11.48;;;;;;;;;;5053700;28;20141;-92
2023/12/01 03:05:25;;;;;;;26.08;12.02;;;;;;;;;;5051202;28;20072;-91
2023/12/01 03:08:05;;;;;;;24.70;12.05;;;;;;;;;;5050670;28;20033;-91
2023/12/01 03:10:46;;;;;;;26.83;12.70;;;;;;;;;;5034719;28;20080;-92
2023/12/01 03:13:28;;;;;;;26.38;11.55;;;;;;;;;;5048736;28;20045;-91
2023/12/01 03:16:11;;;;;;;27.98;12.07;;;;;;;;;;5049131;28;20061;-90
2023/12/01 03:18:52;;;;;;;22.40;10.25;;;;;;;;;;5053760;28;20129;-91
2023/12/01 03:21:19;;;;;;;29.20;11.02;;;;;;;;;;5051437;28;20041;-91
2023/12/01 03:24:01;;;;;;;24.95;10.95;;;;;;;;;;5050436;28;20029;-91
2023/12/01 03:26:44;;;;;;;23.25;11.43;;;;;;;;;;5047736;28;20041;-92
2023/12/01 03:29:26;;;;;;;29.40;12.13;;;;;;;;;;5048078;28;20045;-92
2023/12/01 03:32:06;;;;;;;30.90;12.68;;;;;;;;;;5048220;28;20052;-92
2023/12/01 03:34:41;;;;;;;28.67;13.48;;;;;;;;;;5048963;28;20149;-92
2023/12/01 03:37:24;;;;;;;28.95;12.82;;;;;;;;;;5049086;28;20128;-91
2023/12/01 03:40:01;;;;;;;38.65;12.43;;;;;;;;;;5050718;28;20113;-91
2023/12/01 03:42:42;;;;;;;29.58;12.48;;;;;;;;;;5047503;28;20421;-91
2023/12/01 03:45:25;;;;;;;27.85;12.82;;;;;;;;;;5050753;28;20085;-91
2023/12/01 03:48:07;;;;;;;29.58;13.38;;;;;;;;;;5049563;28;20033;-91
2023/12/01 03:50:50;;;;;;;26.33;12.77;;;;;;;;;;5054624;28;20018;-91
2023/12/01 03:53:21;;;;;;;40.25;13.25;;;;;;;;;;5052440;28;20410;-91
2023/12/01 03:56:06;;;;;;;35.22;10.35;;;;;;;;;;5046618;28;20049;-90
2023/12/01 03:58:57;;;;;;;37.58;14.80;;;;;;;;;;5048456;28;20073;-92
2023/12/01 04:01:38;;;;;;;27.23;9.80;;;;;;;;;;5046417;28;20053;-91
2023/12/01 04:04:19;;;;;;;25.52;12.80;;;;;;;;;;5051672;28;20432;-92
2023/12/01 04:07:00;;;;;;;30.60;12.77;;;;;;;;;;5051471;28;20060;-91
2023/12/01 04:09:45;;;;;;;31.55;12.80;;;;;;;;;;5051147;28;20093;-91
2023/12/01 04:12:16;;;;;;;25.60;13.87;;;;;;;;;;5051154;28;20061;-93
2023/12/01 04:15:00;;;;;;;41.72;15.45;;;;;;;;;;5051365;28;20454;-91
2023/12/01 04:17:45;;;;;;;30.08;12.23;;;;;;;;;;5051389;28;20061;-92
2023/12/01 04:20:29;;;;;;;26.52;11.55;;;;;;;;;;5054309;28;20140;-91
2023/12/01 04:23:10;;;;;;;29.35;11.40;;;;;;;;;;5051562;28;20409;-92
2023/12/01 04:25:51;;;;;;;35.90;14.05;;;;;;;;;;5052040;28;20045;-91
2023/12/01 04:28:32;;;;;;;25.50;10.38;;;;;;;;;;5051991;28;20041;-92
2023/12/01 04:31:13;;;;;;;28.60;12.50;;;;;;;;;;5051989;28;20084;-92
2023/12/01 04:33:55;;;;;;;32.50;13.98;;;;;;;;;;5051126;28;20029;-91
2023/12/01 04:36:37;;;;;;;32.10;13.32;;;;;;;;;;5057656;28;20041;-92
2023/12/01 04:39:18;;;;;;;32.63;12.68;;;;;;;;;;5057751;28;20037;-91
2023/12/01 04:41:58;;;;;;;22.13;10.77;;;;;;;;;;5056706;28;20045;-91
2023/12/01 04:44:39;;;;;;;33.40;13.75;;;;;;;;;;5057580;28;20033;-91
2023/12/01 04:47:20;;;;;;;30.90;14.07;;;;;;;;;;5056671;28;20060;-91
2023/12/01 05:48:37;;;;;;;31.42;12.00;;;;;;;;;;4949424;29;20055;-91
2023/12/01 05:51:19;;;;;;;33.53;12.93;;;;;;;;;;4952225;29;20086;-91
2023/12/01 05:54:00;;;;;;;36.25;11.75;;;;;;;;;;4939561;29;20046;-92
2023/12/01 05:56:42;;;;;;;32.78;13.30;;;;;;;;;;4950867;29;20066;-92
2023/12/01 05:59:27;;;;;;;30.27;13.68;;;;;;;;;;4935782;29;20420;-92
2023/12/01 06:02:11;;;;;;;33.22;12.80;;;;;;;;;;4936786;29;20044;-92
2023/12/01 06:04:51;;;;;;;27.92;12.55;;;;;;;;;;4942233;29;20019;-91
2023/12/01 06:07:34;;;;;;;16.73;9.55;;;;;;;;;;4943360;29;20023;-92
2023/12/01 06:10:14;;;;;;;32.92;12.75;;;;;;;;;;4957331;29;20056;-91
2023/12/01 06:15:29;;;;;;;34.58;13.57;;;;;;;;;;4976004;28;20053;-91
2023/12/01 06:18:11;;;;;;;26.23;11.75;;;;;;;;;;4976596;28;20042;-92
2023/12/01 06:20:53;;;;;;;26.30;12.85;;;;;;;;;;4976048;28;20027;-92
2023/12/01 06:23:34;;;;;;;31.33;12.50;;;;;;;;;;4961556;28;20034;-91
2023/12/01 06:26:15;;;;;;;29.92;13.93;;;;;;;;;;4957609;29;20087;-92
2023/12/01 06:28:58;;;;;;;32.75;12.35;;;;;;;;;;4972156;29;20055;-91
2023/12/01 06:31:40;;;;;;;24.67;11.18;;;;;;;;;;4957109;29;20070;-91
2023/12/01 06:34:22;;;;;;;23.00;10.25;;;;;;;;;;4954574;29;20046;-92
2023/12/01 06:37:09;;;;;;;31.52;13.10;;;;;;;;;;4953259;29;20071;-91
2023/12/01 06:39:52;;;;;;;24.60;10.50;;;;;;;;;;4952380;29;20066;-92
2023/12/01 06:42:33;;;;;;;35.25;12.60;;;;;;;;;;4952448;29;20055;-91
2023/12/01 06:45:04;;;;;;;31.38;13.65;;;;;;;;;;4951158;29;20368;-92
2023/12/01 06:47:48;;;;;;;33.97;12.88;;;;;;;;;;4950844;29;20043;-92
2023/12/01 06:50:31;;;;;;;29.80;13.77;;;;;;;;;;4936690;29;20052;-91
2023/12/01 06:53:24;;;;;;;27.27;11.30;;;;;;;;;;4934984;29;20075;-91
2023/12/01 06:56:06;;;;;;;33.35;13.38;;;;;;;;;;4936944;29;20116;-92
2023/12/01 06:58:47;;;;;;;31.92;14.25;;;;;;;;;;4940914;29;20040;-91
2023/12/01 07:01:31;;;;;;;35.70;13.30;;;;;;;;;;4934990;29;20122;-92
2023/12/01 18:03:13;;;;;;;24.52;9.30;;;;;;;;;;711550;23;21388;-89
2023/12/01 18:05:51;;;;;;;28.30;9.55;;;;;;;;;;4935394;29;20064;-91
2023/12/01 18:08:45;;;;;;;17.60;7.97;;;;;;;;;;4918880;29;20107;-91
2023/12/01 18:11:23;;;;;;;20.17;7.18;;;;;;;;;;4917874;29;20058;-92
2023/12/01 18:14:08;;;;;;;18.80;7.95;;;;;;;;;;4933630;29;20052;-91
2023/12/01 18:30:57;;;;;;;29.35;11.82;;;;;;;;;;4949553;29;20102;-91
2023/12/01 18:33:31;;;;;;;23.55;9.90;;;;;;;;;;4950842;29;20351;-91
2023/12/01 18:36:15;;;;;;;31.33;10.48;;;;;;;;;;4936202;29;20075;-91
2023/12/01 18:38:56;;;;;;;20.40;9.75;;;;;;;;;;5075864;23;20118;-91
2023/12/01 18:41:36;;;;;;;21.63;8.23;;;;;;;;;;4953196;29;20062;-90
2023/12/01 18:44:17;;;;;;;20.50;9.02;;;;;;;;;;4954807;29;20050;-92
2023/12/01 18:49:33;;;;;;;19.13;7.75;;;;;;;;;;4991970;23;20062;-91
2023/12/01 18:52:33;;;;;;;19.75;9.43;;;;;;;;;;4986730;23;20061;31
2023/12/01 18:55:14;;;;;;;23.20;10.23;;;;;;;;;;4913546;29;20052;-92
2023/12/01 18:57:43;;;;;;;26.98;9.98;;;;;;;;;;4998278;23;20056;-91
2023/12/01 19:00:16;;;;;;;17.45;8.85;;;;;;;;;;4959324;28;20098;-92
2023/12/01 19:02:58;;;;;;;25.52;9.77;;;;;;;;;;4954042;29;20051;-91
2023/12/01 19:05:44;;;;;;;18.92;8.57;;;;;;;;;;4966900;29;20330;-91
2023/12/01 19:45:08;;;;;;;20.25;9.60;;;;;;;;;;5336084;23;20071;-90
2023/12/01 19:47:58;;;;;;;21.23;9.98;;;;;;;;;;4956902;29;20134;-90
2023/12/01 19:50:41;;;;;;;26.55;9.77;;;;;;;;;;4954507;28;20416;-90
2023/12/01 19:53:25;;;;;;;21.20;9.77;;;;;;;;;;4962096;28;20047;-92
2023/12/01 19:56:06;;;;;;;31.57;11.20;;;;;;;;;;4956342;29;20098;-92
2023/12/01 19:58:47;;;;;;;32.05;12.43;;;;;;;;;;4955462;29;20168;-91
2023/12/01 20:01:31;;;;;;;31.77;12.48;;;;;;;;;;4974149;29;20035;-91
2023/12/01 20:04:21;;;;;;;32.75;12.27;;;;;;;;;;4960997;29;20051;-92
2023/12/01 20:07:02;;;;;;;38.25;11.60;;;;;;;;;;4957080;29;20051;-91
2023/12/01 20:09:47;;;;;;;29.27;11.55;;;;;;;;;;4957115;29;20046;-91
2023/12/01 20:12:21;;;;;;;35.80;12.30;;;;;;;;;;4974194;28;20055;-92
2023/12/01 20:15:03;;;;;;;23.80;10.55;;;;;;;;;;4958405;29;20039;-91
2023/12/01 20:17:47;;;;;;;31.27;12.23;;;;;;;;;;4947925;29;20138;-91
2023/12/01 20:20:22;;;;;;;34.83;12.35;;;;;;;;;;4972409;28;20110;-91
2023/12/01 20:23:23;;;;;;;31.65;12.15;;;;;;;;;;4959692;29;20049;-92
2023/12/01 20:26:06;;;;;;;35.70;12.55;;;;;;;;;;5269956;23;20146;-91
2023/12/01 20:28:37;;;;;;;34.88;13.93;;;;;;;;;;4972574;29;20203;-92
2023/12/01 20:31:12;;;;;;;;;;;;;;;;;;4960137;29;20107;-92
2023/12/01 20:33:40;;;;;;;29.65;13.45;;;;;;;;;;4956512;29;19922;-92
2023/12/01 20:36:12;;;;;;;40.95;12.68;;;;;;;;;;4972308;29;20070;-91
2023/12/01 20:38:53;;;;;;;30.90;12.90;;;;;;;;;;4957232;29;20420;-91
2023/12/01 20:41:39;;;;;;;30.17;13.35;;;;;;;;;;4968936;29;20103;-92
2023/12/01 20:44:23;;;;;;;26.63;9.90;;;;;;;;;;4956283;29;20070;-90
2023/12/01 20:47:18;;;;;;;39.78;11.77;;;;;;;;;;4963623;29;20047;-92
2023/12/01 20:50:26;;;;;;;32.97;13.10;;;;;;;;;;4970676;28;20075;-91
2023/12/01 20:53:06;;;;;;;38.38;15.65;;;;;;;;;;5306997;23;21389;-91
2023/12/01 20:55:53;;;;;;;44.60;17.33;;;;;;;;;;4958772;29;20055;-93
2023/12/01 20:58:22;;;;;;;47.75;18.92;;;;;;;;;;4977223;28;20055;-91
2023/12/01 21:01:04;;;;;;;44.35;15.68;;;;;;;;;;4960043;29;20079;-93
2023/12/01 21:03:49;;;;;;;54.47;17.13;;;;;;;;;;4970671;29;20047;-91
2023/12/01 21:06:35;;;;;;;43.88;15.30;;;;;;;;;;4971180;29;20123;-92
2023/12/01 21:09:05;;;;;;;48.35;16.55;;;;;;;;;;4974747;28;20051;-90
2023/12/01 21:11:39;;;;;;;37.95;12.10;;;;;;;;;;4953267;29;20114;-91
2023/12/01 21:14:21;;;;;;;37.08;13.63;;;;;;;;;;4955121;29;20066;-91
2023/12/01 21:16:52;;;;;;;33.90;12.68;;;;;;;;;;4955464;29;20055;-91
2023/12/01 21:19:36;;;;;;;34.42;12.88;;;;;;;;;;4968476;29;20066;-91
2023/12/01 21:22:08;;;;;;;31.88;11.80;;;;;;;;;;4952185;29;20055;-91
2023/12/01 21:30:30;;;;;;;33.22;13.13;;;;;;;;;;4977060;28;20075;-92
2023/12/01 21:33:39;;;;;;;34.53;13.10;;;;;;;;;;4900003;29;20056;-92
2023/12/01 21:39:16;;;;;;;32.45;14.07;;;;;;;;;;5110369;23;20048;-92
2023/12/01 21:42:13;;;;;;;38.17;14.00;;;;;;;;;;4976636;29;20070;-91
2023/12/01 21:44:58;;;;;;;31.30;13.40;;;;;;;;;;5297755;23;20057;-91
2023/12/01 21:47:51;;;;;;;35.95;13.90;;;;;;;;;;4970253;28;20062;-92
2023/12/01 21:50:35;;;;;;;34.50;13.43;;;;;;;;;;4952069;29;20458;-90
2023/12/01 21:53:04;;;;;;;32.95;12.02;;;;;;;;;;4954005;29;20154;-91
2023/12/01 21:55:32;;;;;;;40.17;15.68;;;;;;;;;;4953661;29;20340;-91
2023/12/01 21:58:06;;;;;;;47.55;13.98;;;;;;;;;;4954410;29;20051;-90
2023/12/01 22:00:39;;;;;;;33.90;15.00;;;;;;;;;;4972934;23;20078;-91
2023/12/01 22:03:20;;;;;;;41.45;14.55;;;;;;;;;;4961237;29;20047;-91
2023/12/01 22:06:11;;;;;;;30.65;12.95;;;;;;;;;;4956586;29;20050;-91
2023/12/01 22:08:49;;;;;;;50.35;19.25;;;;;;;;;;4972701;28;20114;-93
2023/12/01 22:11:30;;;;;;;35.63;13.35;;;;;;;;;;4960202;29;20115;-92
2023/12/01 22:14:14;;;;;;;40.97;15.15;;;;;;;;;;4953423;29;20047;-92
2023/12/01 22:16:51;;;;;;;34.65;12.07;;;;;;;;;;4955623;29;20073;-91
2023/12/01 22:19:33;;;;;;;30.70;13.05;;;;;;;;;;4966264;29;20138;-91
2023/12/01 22:22:04;;;;;;;36.58;15.32;;;;;;;;;;4951493;29;20137;-92
2023/12/01 22:24:44;;;;;;;34.72;13.65;;;;;;;;;;4970935;29;20149;-91
2023/12/01 22:27:30;;;;;;;36.92;12.23;;;;;;;;;;4959904;29;20102;-91
2023/12/01 22:30:07;;;;;;;35.83;12.70;;;;;;;;;;4969200;29;20070;-91
2023/12/01 22:32:52;;;;;;;36.63;13.10;;;;;;;;;;4956280;29;20142;-91
2023/12/01 22:35:36;;;;;;;38.28;14.07;;;;;;;;;;4953948;29;20118;-91
2023/12/01 22:38:18;;;;;;;38.42;15.35;;;;;;;;;;4954537;29;20067;-93
2023/12/01 22:40:47;;;;;;;36.35;15.38;;;;;;;;;;4970048;29;20067;-90
2023/12/01 22:43:39;;;;;;;40.30;16.45;;;;;;;;;;4959203;28;20078;-91
2023/12/01 22:46:15;;;;;;;42.72;16.90;;;;;;;;;;4963028;28;20043;-91
2023/12/01 22:48:57;;;;;;;38.38;14.10;;;;;;;;;;4957183;29;20027;-91
2023/12/01 22:51:41;;;;;;;41.13;14.35;;;;;;;;;;4955802;29;20142;-91
2023/12/01 22:54:24;;;;;;;37.42;13.88;;;;;;;;;;4968148;29;20061;-91
2023/12/01 22:56:59;;;;;;;36.45;14.05;;;;;;;;;;4954998;29;20066;-92
2023/12/01 22:59:43;;;;;;;41.40;15.00;;;;;;;;;;4952484;29;20059;-92
2023/12/01 23:02:23;;;;;;;42.03;13.88;;;;;;;;;;4954285;29;20077;-92
2023/12/01 23:04:56;;;;;;;38.58;13.65;;;;;;;;;;4955029;29;20047;-91
2023/12/01 23:07:40;;;;;;;46.17;16.00;;;;;;;;;;4968958;28;20055;-91
2023/12/01 23:10:14;;;;;;;38.47;14.52;;;;;;;;;;4952551;29;20087;-92
2023/12/01 23:12:53;;;;;;;39.78;14.07;;;;;;;;;;4953560;29;20047;-92
2023/12/01 23:15:37;;;;;;;33.38;14.30;;;;;;;;;;4953532;29;20075;-91
2023/12/01 23:18:23;;;;;;;36.97;14.70;;;;;;;;;;4952673;29;20088;-91
2023/12/01 23:21:05;;;;;;;33.97;11.18;;;;;;;;;;4955653;29;20058;-93
2023/12/01 23:23:35;;;;;;;37.25;13.13;;;;;;;;;;4955734;29;20114;-91
2023/12/01 23:26:09;;;;;;;47.08;14.82;;;;;;;;;;4954510;29;20052;-91
2023/12/01 23:28:51;;;;;;;34.25;12.88;;;;;;;;;;4952776;29;20061;-92
2023/12/01 23:31:22;;;;;;;35.90;14.52;;;;;;;;;;4952081;29;20051;-91
2023/12/01 23:34:03;;;;;;;44.30;14.75;;;;;;;;;;4954289;29;20085;-91
2023/12/01 23:36:33;;;;;;;39.45;14.80;;;;;;;;;;4951892;29;20082;-91
2023/12/01 23:44:18;;;;;;;35.08;12.93;;;;;;;;;;5053351;23;20070;-91
2023/12/01 23:46:49;;;;;;;35.83;13.15;;;;;;;;;;4952831;29;20409;-92
2023/12/01 23:49:23;;;;;;;39.38;13.18;;;;;;;;;;4953929;29;20052;-91
2023/12/01 23:51:54;;;;;;;31.00;13.05;;;;;;;;;;4956522;29;20122;-91
2023/12/01 23:54:36;;;;;;;30.00;12.60;;;;;;;;;;4982718;23;20098;-91
2023/12/01 23:57:07;;;;;;;38.75;14.05;;;;;;;;;;4956589;29;20066;-92
2023/12/01 23:59:48;;;;;;;43.08;13.57;;;;;;;;;;4954404;29;20062;-92
